sensor_id;sensor_type;location;lat;lon;timestamp;P1;durP1;ratioP1;P2;durP2;ratioP2
53961;SDS011;39868;53.398;6.564;2023-01-24T00:01:04;6.50;;;3.30;;
53961;SDS011;39868;53.398;6.564;2023-01-24T00:03:32;5.37;;;3.20;;
53961;SDS011;39868;53.398;6.564;2023-01-24T00:05:59;8.20;;;3.40;;
53961;SDS011;39868;53.398;6.564;2023-01-24T00:08:27;7.93;;;3.07;;
53961;SDS011;39868;53.398;6.564;2023-01-24T00:10:58;7.90;;;3.13;;
53961;SDS011;39868;53.398;6.564;2023-01-24T00:13:27;7.35;;;3.78;;
53961;SDS011;39868;53.398;6.564;2023-01-24T00:16:28;8.07;;;4.00;;
53961;SDS011;39868;53.398;6.564;2023-01-24T00:18:50;9.43;;;3.87;;
53961;SDS011;39868;53.398;6.564;2023-01-24T00:21:19;10.93;;;3.90;;
53961;SDS011;39868;53.398;6.564;2023-01-24T00:23:50;8.87;;;3.73;;
53961;SDS011;39868;53.398;6.564;2023-01-24T00:26:20;8.83;;;4.07;;
53961;SDS011;39868;53.398;6.564;2023-01-24T00:28:48;10.30;;;4.00;;
53961;SDS011;39868;53.398;6.564;2023-01-24T00:31:16;7.00;;;3.73;;
53961;SDS011;39868;53.398;6.564;2023-01-24T00:33:44;8.47;;;4.20;;
53961;SDS011;39868;53.398;6.564;2023-01-24T00:36:12;7.70;;;4.03;;
53961;SDS011;39868;53.398;6.564;2023-01-24T00:38:39;8.27;;;4.40;;
53961;SDS011;39868;53.398;6.564;2023-01-24T00:41:07;10.20;;;4.60;;
53961;SDS011;39868;53.398;6.564;2023-01-24T00:43:35;11.20;;;4.67;;
53961;SDS011;39868;53.398;6.564;2023-01-24T00:46:06;9.83;;;3.90;;
53961;SDS011;39868;53.398;6.564;2023-01-24T00:48:35;10.27;;;4.63;;
53961;SDS011;39868;53.398;6.564;2023-01-24T00:51:03;12.80;;;4.77;;
53961;SDS011;39868;53.398;6.564;2023-01-24T00:53:30;8.23;;;3.60;;
53961;SDS011;39868;53.398;6.564;2023-01-24T00:55:58;9.07;;;4.40;;
53961;SDS011;39868;53.398;6.564;2023-01-24T00:58:26;10.83;;;4.40;;
53961;SDS011;39868;53.398;6.564;2023-01-24T01:00:54;10.03;;;4.17;;
53961;SDS011;39868;53.398;6.564;2023-01-24T01:03:23;13.37;;;5.33;;
53961;SDS011;39868;53.398;6.564;2023-01-24T01:05:59;10.73;;;5.03;;
53961;SDS011;39868;53.398;6.564;2023-01-24T01:08:30;8.93;;;4.27;;
53961;SDS011;39868;53.398;6.564;2023-01-24T01:10:58;12.10;;;4.80;;
53961;SDS011;39868;53.398;6.564;2023-01-24T01:13:27;11.60;;;5.23;;
53961;SDS011;39868;53.398;6.564;2023-01-24T01:16:06;9.93;;;4.70;;
53961;SDS011;39868;53.398;6.564;2023-01-24T01:18:36;11.20;;;5.40;;
53961;SDS011;39868;53.398;6.564;2023-01-24T01:21:04;12.50;;;4.67;;
53961;SDS011;39868;53.398;6.564;2023-01-24T01:23:32;13.70;;;5.23;;
53961;SDS011;39868;53.398;6.564;2023-01-24T01:26:00;12.40;;;5.13;;
53961;SDS011;39868;53.398;6.564;2023-01-24T01:28:30;12.53;;;4.77;;
53961;SDS011;39868;53.398;6.564;2023-01-24T01:30:58;10.13;;;4.70;;
53961;SDS011;39868;53.398;6.564;2023-01-24T01:33:26;10.17;;;4.83;;
53961;SDS011;39868;53.398;6.564;2023-01-24T01:35:53;12.57;;;5.10;;
53961;SDS011;39868;53.398;6.564;2023-01-24T01:38:21;12.17;;;5.23;;
53961;SDS011;39868;53.398;6.564;2023-01-24T01:40:51;11.30;;;5.43;;
53961;SDS011;39868;53.398;6.564;2023-01-24T01:43:20;10.97;;;4.80;;
53961;SDS011;39868;53.398;6.564;2023-01-24T01:45:52;11.37;;;4.67;;
53961;SDS011;39868;53.398;6.564;2023-01-24T01:48:38;11.90;;;5.10;;
53961;SDS011;39868;53.398;6.564;2023-01-24T01:51:19;8.90;;;4.67;;
53961;SDS011;39868;53.398;6.564;2023-01-24T01:58:56;9.43;;;4.53;;
53961;SDS011;39868;53.398;6.564;2023-01-24T02:01:27;12.17;;;5.17;;
53961;SDS011;39868;53.398;6.564;2023-01-24T02:03:59;10.87;;;4.90;;
53961;SDS011;39868;53.398;6.564;2023-01-24T02:06:40;11.17;;;5.23;;
53961;SDS011;39868;53.398;6.564;2023-01-24T02:09:35;11.37;;;4.60;;
53961;SDS011;39868;53.398;6.564;2023-01-24T02:12:28;12.73;;;5.33;;
53961;SDS011;39868;53.398;6.564;2023-01-24T02:15:06;11.13;;;5.03;;
53961;SDS011;39868;53.398;6.564;2023-01-24T02:17:56;11.93;;;4.57;;
53961;SDS011;39868;53.398;6.564;2023-01-24T02:20:36;12.40;;;5.03;;
53961;SDS011;39868;53.398;6.564;2023-01-24T02:26:09;11.23;;;5.03;;
53961;SDS011;39868;53.398;6.564;2023-01-24T02:28:58;12.23;;;5.63;;
53961;SDS011;39868;53.398;6.564;2023-01-24T02:34:24;12.40;;;5.33;;
53961;SDS011;39868;53.398;6.564;2023-01-24T02:36:57;11.80;;;5.03;;
53961;SDS011;39868;53.398;6.564;2023-01-24T02:39:46;12.10;;;5.10;;
53961;SDS011;39868;53.398;6.564;2023-01-24T02:42:19;10.53;;;5.03;;
53961;SDS011;39868;53.398;6.564;2023-01-24T02:47:27;12.27;;;5.37;;
53961;SDS011;39868;53.398;6.564;2023-01-24T02:49:59;10.10;;;4.77;;
53961;SDS011;39868;53.398;6.564;2023-01-24T02:52:28;10.57;;;4.73;;
53961;SDS011;39868;53.398;6.564;2023-01-24T02:55:14;12.23;;;4.97;;
53961;SDS011;39868;53.398;6.564;2023-01-24T02:57:41;10.43;;;5.00;;
53961;SDS011;39868;53.398;6.564;2023-01-24T03:00:27;15.20;;;5.83;;
53961;SDS011;39868;53.398;6.564;2023-01-24T03:02:57;10.43;;;4.30;;
53961;SDS011;39868;53.398;6.564;2023-01-24T03:05:26;10.30;;;5.30;;
53961;SDS011;39868;53.398;6.564;2023-01-24T03:08:14;10.30;;;4.63;;
53961;SDS011;39868;53.398;6.564;2023-01-24T03:10:41;9.37;;;4.63;;
53961;SDS011;39868;53.398;6.564;2023-01-24T03:13:09;12.77;;;4.90;;
53961;SDS011;39868;53.398;6.564;2023-01-24T03:15:55;12.70;;;5.00;;
53961;SDS011;39868;53.398;6.564;2023-01-24T03:18:44;10.13;;;4.90;;
53961;SDS011;39868;53.398;6.564;2023-01-24T03:21:30;12.37;;;5.50;;
53961;SDS011;39868;53.398;6.564;2023-01-24T03:24:16;11.67;;;5.23;;
53961;SDS011;39868;53.398;6.564;2023-01-24T03:27:02;13.93;;;5.67;;
53961;SDS011;39868;53.398;6.564;2023-01-24T03:29:48;15.10;;;6.03;;
53961;SDS011;39868;53.398;6.564;2023-01-24T03:32:34;13.33;;;5.37;;
53961;SDS011;39868;53.398;6.564;2023-01-24T03:35:20;12.63;;;4.90;;
53961;SDS011;39868;53.398;6.564;2023-01-24T03:37:48;15.07;;;5.70;;
53961;SDS011;39868;53.398;6.564;2023-01-24T03:40:34;11.70;;;5.27;;
53961;SDS011;39868;53.398;6.564;2023-01-24T03:43:02;11.30;;;5.87;;
53961;SDS011;39868;53.398;6.564;2023-01-24T03:45:35;14.23;;;5.50;;
53961;SDS011;39868;53.398;6.564;2023-01-24T03:48:09;14.03;;;4.87;;
53961;SDS011;39868;53.398;6.564;2023-01-24T03:50:41;9.52;;;4.32;;
53961;SDS011;39868;53.398;6.564;2023-01-24T03:53:33;11.57;;;4.70;;
53961;SDS011;39868;53.398;6.564;2023-01-24T03:56:01;9.53;;;5.03;;
53961;SDS011;39868;53.398;6.564;2023-01-24T03:58:38;7.67;;;4.20;;
53961;SDS011;39868;53.398;6.564;2023-01-24T04:01:09;9.30;;;4.33;;
53961;SDS011;39868;53.398;6.564;2023-01-24T04:04:03;12.83;;;5.27;;
53961;SDS011;39868;53.398;6.564;2023-01-24T04:06:31;8.67;;;4.33;;
53961;SDS011;39868;53.398;6.564;2023-01-24T04:09:00;11.07;;;5.03;;
53961;SDS011;39868;53.398;6.564;2023-01-24T04:11:28;9.73;;;4.77;;
53961;SDS011;39868;53.398;6.564;2023-01-24T04:14:03;10.47;;;4.13;;
53961;SDS011;39868;53.398;6.564;2023-01-24T04:16:34;8.70;;;3.80;;
53961;SDS011;39868;53.398;6.564;2023-01-24T04:19:12;9.50;;;4.20;;
53961;SDS011;39868;53.398;6.564;2023-01-24T04:21:40;10.47;;;5.00;;
53961;SDS011;39868;53.398;6.564;2023-01-24T04:24:10;10.20;;;4.70;;
53961;SDS011;39868;53.398;6.564;2023-01-24T04:26:41;11.10;;;3.97;;
53961;SDS011;39868;53.398;6.564;2023-01-24T04:29:14;9.03;;;4.97;;
53961;SDS011;39868;53.398;6.564;2023-01-24T04:31:44;9.23;;;4.30;;
53961;SDS011;39868;53.398;6.564;2023-01-24T04:34:29;9.10;;;4.30;;
53961;SDS011;39868;53.398;6.564;2023-01-24T04:36:57;7.57;;;3.70;;
53961;SDS011;39868;53.398;6.564;2023-01-24T04:39:24;7.67;;;3.97;;
53961;SDS011;39868;53.398;6.564;2023-01-24T04:42:10;8.83;;;4.40;;
53961;SDS011;39868;53.398;6.564;2023-01-24T04:44:38;10.90;;;5.03;;
53961;SDS011;39868;53.398;6.564;2023-01-24T04:47:08;10.00;;;4.17;;
53961;SDS011;39868;53.398;6.564;2023-01-24T04:49:36;10.37;;;4.87;;
53961;SDS011;39868;53.398;6.564;2023-01-24T04:52:05;10.23;;;4.43;;
53961;SDS011;39868;53.398;6.564;2023-01-24T04:54:44;9.17;;;4.00;;
53961;SDS011;39868;53.398;6.564;2023-01-24T04:57:13;10.53;;;5.00;;
53961;SDS011;39868;53.398;6.564;2023-01-24T04:59:43;9.40;;;4.30;;
53961;SDS011;39868;53.398;6.564;2023-01-24T05:02:11;10.73;;;4.27;;
53961;SDS011;39868;53.398;6.564;2023-01-24T05:04:41;9.07;;;4.37;;
53961;SDS011;39868;53.398;6.564;2023-01-24T05:07:12;12.20;;;4.03;;
53961;SDS011;39868;53.398;6.564;2023-01-24T05:09:43;6.80;;;3.40;;
53961;SDS011;39868;53.398;6.564;2023-01-24T05:12:11;9.70;;;4.20;;
53961;SDS011;39868;53.398;6.564;2023-01-24T05:14:39;11.50;;;4.53;;
53961;SDS011;39868;53.398;6.564;2023-01-24T05:17:08;7.47;;;3.87;;
53961;SDS011;39868;53.398;6.564;2023-01-24T05:19:36;10.90;;;5.03;;
53961;SDS011;39868;53.398;6.564;2023-01-24T05:22:04;8.43;;;4.30;;
53961;SDS011;39868;53.398;6.564;2023-01-24T05:24:36;9.75;;;4.25;;
53961;SDS011;39868;53.398;6.564;2023-01-24T05:27:05;9.60;;;4.73;;
53961;SDS011;39868;53.398;6.564;2023-01-24T05:29:35;10.47;;;4.50;;
53961;SDS011;39868;53.398;6.564;2023-01-24T05:32:04;9.30;;;4.53;;
53961;SDS011;39868;53.398;6.564;2023-01-24T05:34:32;10.60;;;4.70;;
53961;SDS011;39868;53.398;6.564;2023-01-24T05:36:59;10.47;;;3.80;;
53961;SDS011;39868;53.398;6.564;2023-01-24T05:39:27;9.57;;;4.23;;
53961;SDS011;39868;53.398;6.564;2023-01-24T05:41:55;8.70;;;4.37;;
53961;SDS011;39868;53.398;6.564;2023-01-24T05:44:28;10.80;;;4.73;;
53961;SDS011;39868;53.398;6.564;2023-01-24T05:46:57;9.50;;;4.80;;
53961;SDS011;39868;53.398;6.564;2023-01-24T05:49:31;14.87;;;4.63;;
53961;SDS011;39868;53.398;6.564;2023-01-24T05:51:58;12.73;;;5.20;;
53961;SDS011;39868;53.398;6.564;2023-01-24T05:54:55;11.27;;;4.87;;
53961;SDS011;39868;53.398;6.564;2023-01-24T05:57:24;11.10;;;5.80;;
53961;SDS011;39868;53.398;6.564;2023-01-24T06:00:10;8.93;;;4.70;;
53961;SDS011;39868;53.398;6.564;2023-01-24T06:02:49;10.30;;;5.10;;
53961;SDS011;39868;53.398;6.564;2023-01-24T06:05:19;8.87;;;4.50;;
53961;SDS011;39868;53.398;6.564;2023-01-24T06:07:47;10.27;;;4.60;;
53961;SDS011;39868;53.398;6.564;2023-01-24T06:10:14;8.90;;;4.40;;
53961;SDS011;39868;53.398;6.564;2023-01-24T06:12:53;10.40;;;4.77;;
53961;SDS011;39868;53.398;6.564;2023-01-24T06:15:21;10.57;;;5.03;;
53961;SDS011;39868;53.398;6.564;2023-01-24T06:17:49;9.77;;;4.70;;
53961;SDS011;39868;53.398;6.564;2023-01-24T06:20:17;6.57;;;4.33;;
53961;SDS011;39868;53.398;6.564;2023-01-24T06:22:46;11.10;;;4.73;;
53961;SDS011;39868;53.398;6.564;2023-01-24T06:25:22;8.97;;;4.57;;
53961;SDS011;39868;53.398;6.564;2023-01-24T06:27:51;9.50;;;4.80;;
53961;SDS011;39868;53.398;6.564;2023-01-24T06:30:19;9.40;;;4.43;;
53961;SDS011;39868;53.398;6.564;2023-01-24T06:35:35;12.57;;;4.63;;
53961;SDS011;39868;53.398;6.564;2023-01-24T06:38:42;10.60;;;5.15;;
53961;SDS011;39868;53.398;6.564;2023-01-24T06:41:14;11.67;;;5.30;;
53961;SDS011;39868;53.398;6.564;2023-01-24T06:43:43;7.93;;;4.63;;
53961;SDS011;39868;53.398;6.564;2023-01-24T06:46:12;8.83;;;4.57;;
53961;SDS011;39868;53.398;6.564;2023-01-24T06:48:44;11.13;;;4.77;;
53961;SDS011;39868;53.398;6.564;2023-01-24T06:51:12;8.13;;;4.40;;
53961;SDS011;39868;53.398;6.564;2023-01-24T06:53:41;9.83;;;5.03;;
53961;SDS011;39868;53.398;6.564;2023-01-24T06:56:08;11.70;;;5.60;;
53961;SDS011;39868;53.398;6.564;2023-01-24T06:58:36;12.77;;;5.87;;
53961;SDS011;39868;53.398;6.564;2023-01-24T07:01:04;9.53;;;5.07;;
53961;SDS011;39868;53.398;6.564;2023-01-24T07:03:32;12.30;;;5.20;;
53961;SDS011;39868;53.398;6.564;2023-01-24T07:06:00;11.50;;;5.63;;
53961;SDS011;39868;53.398;6.564;2023-01-24T07:08:27;11.40;;;5.40;;
53961;SDS011;39868;53.398;6.564;2023-01-24T07:10:56;13.27;;;5.60;;
53961;SDS011;39868;53.398;6.564;2023-01-24T07:13:26;11.93;;;5.47;;
53961;SDS011;39868;53.398;6.564;2023-01-24T07:15:54;12.07;;;5.20;;
53961;SDS011;39868;53.398;6.564;2023-01-24T07:18:21;10.77;;;5.10;;
53961;SDS011;39868;53.398;6.564;2023-01-24T07:20:49;9.83;;;4.63;;
53961;SDS011;39868;53.398;6.564;2023-01-24T07:23:19;11.23;;;5.00;;
53961;SDS011;39868;53.398;6.564;2023-01-24T07:28:18;10.60;;;4.87;;
53961;SDS011;39868;53.398;6.564;2023-01-24T07:30:45;10.83;;;4.57;;
53961;SDS011;39868;53.398;6.564;2023-01-24T07:33:14;11.50;;;5.47;;
53961;SDS011;39868;53.398;6.564;2023-01-24T07:35:42;12.20;;;5.20;;
53961;SDS011;39868;53.398;6.564;2023-01-24T07:38:10;11.87;;;6.17;;
53961;SDS011;39868;53.398;6.564;2023-01-24T07:40:40;13.60;;;5.50;;
53961;SDS011;39868;53.398;6.564;2023-01-24T07:43:08;12.40;;;5.47;;
53961;SDS011;39868;53.398;6.564;2023-01-24T07:45:36;12.53;;;5.20;;
53961;SDS011;39868;53.398;6.564;2023-01-24T07:48:05;13.10;;;5.70;;
53961;SDS011;39868;53.398;6.564;2023-01-24T07:50:36;12.30;;;6.10;;
53961;SDS011;39868;53.398;6.564;2023-01-24T07:53:04;11.67;;;5.37;;
53961;SDS011;39868;53.398;6.564;2023-01-24T07:55:32;13.53;;;5.63;;
53961;SDS011;39868;53.398;6.564;2023-01-24T07:58:00;12.33;;;5.20;;
53961;SDS011;39868;53.398;6.564;2023-01-24T08:00:29;13.37;;;5.67;;
53961;SDS011;39868;53.398;6.564;2023-01-24T08:02:57;11.33;;;5.67;;
53961;SDS011;39868;53.398;6.564;2023-01-24T08:05:24;15.10;;;6.07;;
53961;SDS011;39868;53.398;6.564;2023-01-24T08:07:53;14.37;;;6.67;;
53961;SDS011;39868;53.398;6.564;2023-01-24T08:10:21;11.87;;;5.43;;
53961;SDS011;39868;53.398;6.564;2023-01-24T08:12:52;10.47;;;5.27;;
53961;SDS011;39868;53.398;6.564;2023-01-24T08:15:20;13.87;;;5.53;;
53961;SDS011;39868;53.398;6.564;2023-01-24T08:17:48;15.00;;;5.90;;
53961;SDS011;39868;53.398;6.564;2023-01-24T08:20:15;13.90;;;6.37;;
53961;SDS011;39868;53.398;6.564;2023-01-24T08:22:43;10.67;;;5.57;;
53961;SDS011;39868;53.398;6.564;2023-01-24T08:25:26;14.07;;;5.53;;
53961;SDS011;39868;53.398;6.564;2023-01-24T08:27:53;10.03;;;5.50;;
53961;SDS011;39868;53.398;6.564;2023-01-24T08:30:21;10.30;;;5.40;;
53961;SDS011;39868;53.398;6.564;2023-01-24T08:32:57;12.07;;;5.00;;
53961;SDS011;39868;53.398;6.564;2023-01-24T08:35:26;11.40;;;5.10;;
53961;SDS011;39868;53.398;6.564;2023-01-24T08:37:55;9.10;;;4.63;;
53961;SDS011;39868;53.398;6.564;2023-01-24T08:40:23;10.30;;;5.27;;
53961;SDS011;39868;53.398;6.564;2023-01-24T08:42:51;10.67;;;4.70;;
53961;SDS011;39868;53.398;6.564;2023-01-24T08:45:18;11.30;;;5.47;;
53961;SDS011;39868;53.398;6.564;2023-01-24T08:47:50;12.00;;;5.50;;
53961;SDS011;39868;53.398;6.564;2023-01-24T08:52:47;11.67;;;5.07;;
53961;SDS011;39868;53.398;6.564;2023-01-24T08:55:15;8.77;;;4.87;;
53961;SDS011;39868;53.398;6.564;2023-01-24T08:57:43;9.57;;;4.93;;
53961;SDS011;39868;53.398;6.564;2023-01-24T09:00:10;13.23;;;5.43;;
53961;SDS011;39868;53.398;6.564;2023-01-24T09:02:38;11.73;;;4.73;;
53961;SDS011;39868;53.398;6.564;2023-01-24T09:05:06;13.07;;;5.53;;
53961;SDS011;39868;53.398;6.564;2023-01-24T09:07:35;14.23;;;5.77;;
53961;SDS011;39868;53.398;6.564;2023-01-24T09:10:08;14.10;;;5.93;;
53961;SDS011;39868;53.398;6.564;2023-01-24T09:12:36;12.73;;;5.83;;
53961;SDS011;39868;53.398;6.564;2023-01-24T09:15:04;12.87;;;6.23;;
53961;SDS011;39868;53.398;6.564;2023-01-24T09:17:32;11.47;;;5.60;;
53961;SDS011;39868;53.398;6.564;2023-01-24T09:19:59;14.20;;;5.53;;
53961;SDS011;39868;53.398;6.564;2023-01-24T09:22:27;11.93;;;5.93;;
53961;SDS011;39868;53.398;6.564;2023-01-24T09:24:55;13.87;;;5.80;;
53961;SDS011;39868;53.398;6.564;2023-01-24T09:27:22;12.57;;;5.80;;
53961;SDS011;39868;53.398;6.564;2023-01-24T09:29:50;13.80;;;6.10;;
53961;SDS011;39868;53.398;6.564;2023-01-24T09:32:17;14.30;;;6.33;;
53961;SDS011;39868;53.398;6.564;2023-01-24T09:34:47;11.77;;;5.97;;
53961;SDS011;39868;53.398;6.564;2023-01-24T09:37:18;11.47;;;5.83;;
53961;SDS011;39868;53.398;6.564;2023-01-24T09:39:46;12.13;;;5.37;;
53961;SDS011;39868;53.398;6.564;2023-01-24T09:45:10;12.50;;;5.10;;
53961;SDS011;39868;53.398;6.564;2023-01-24T09:47:52;11.10;;;5.27;;
53961;SDS011;39868;53.398;6.564;2023-01-24T09:52:55;10.77;;;4.83;;
53961;SDS011;39868;53.398;6.564;2023-01-24T09:55:28;10.80;;;5.10;;
53961;SDS011;39868;53.398;6.564;2023-01-24T09:58:35;12.13;;;5.67;;
53961;SDS011;39868;53.398;6.564;2023-01-24T10:01:11;13.70;;;5.17;;
53961;SDS011;39868;53.398;6.564;2023-01-24T10:03:40;12.57;;;4.87;;
53961;SDS011;39868;53.398;6.564;2023-01-24T10:06:13;9.67;;;4.83;;
53961;SDS011;39868;53.398;6.564;2023-01-24T10:08:55;9.20;;;4.10;;
53961;SDS011;39868;53.398;6.564;2023-01-24T10:14:34;10.47;;;5.30;;
53961;SDS011;39868;53.398;6.564;2023-01-24T10:22:54;9.87;;;4.97;;
53961;SDS011;39868;53.398;6.564;2023-01-24T10:28:08;11.17;;;4.70;;
53961;SDS011;39868;53.398;6.564;2023-01-24T10:31:01;9.43;;;4.73;;
53961;SDS011;39868;53.398;6.564;2023-01-24T10:39:11;12.23;;;5.20;;
53961;SDS011;39868;53.398;6.564;2023-01-24T10:41:39;11.50;;;5.50;;
53961;SDS011;39868;53.398;6.564;2023-01-24T10:44:10;12.87;;;5.67;;
53961;SDS011;39868;53.398;6.564;2023-01-24T10:46:49;15.17;;;5.53;;
53961;SDS011;39868;53.398;6.564;2023-01-24T10:49:25;9.60;;;4.70;;
53961;SDS011;39868;53.398;6.564;2023-01-24T10:52:08;14.03;;;5.80;;
53961;SDS011;39868;53.398;6.564;2023-01-24T10:54:48;14.63;;;5.77;;
53961;SDS011;39868;53.398;6.564;2023-01-24T10:57:39;16.80;;;6.17;;
53961;SDS011;39868;53.398;6.564;2023-01-24T11:00:17;13.27;;;5.47;;
53961;SDS011;39868;53.398;6.564;2023-01-24T11:02:58;13.43;;;5.47;;
53961;SDS011;39868;53.398;6.564;2023-01-24T11:05:54;11.43;;;5.47;;
53961;SDS011;39868;53.398;6.564;2023-01-24T11:08:34;13.15;;;5.90;;
53961;SDS011;39868;53.398;6.564;2023-01-24T11:11:03;13.40;;;5.67;;
53961;SDS011;39868;53.398;6.564;2023-01-24T11:13:46;13.00;;;5.33;;
53961;SDS011;39868;53.398;6.564;2023-01-24T11:18:48;11.93;;;5.03;;
53961;SDS011;39868;53.398;6.564;2023-01-24T11:21:26;12.00;;;5.50;;
53961;SDS011;39868;53.398;6.564;2023-01-24T11:23:59;11.33;;;5.33;;
53961;SDS011;39868;53.398;6.564;2023-01-24T11:26:28;9.20;;;4.43;;
53961;SDS011;39868;53.398;6.564;2023-01-24T11:29:01;13.07;;;5.27;;
53961;SDS011;39868;53.398;6.564;2023-01-24T11:31:35;10.20;;;4.60;;
53961;SDS011;39868;53.398;6.564;2023-01-24T11:34:27;13.98;;;6.10;;
53961;SDS011;39868;53.398;6.564;2023-01-24T11:42:51;12.13;;;5.23;;
53961;SDS011;39868;53.398;6.564;2023-01-24T11:45:32;10.37;;;5.00;;
53961;SDS011;39868;53.398;6.564;2023-01-24T11:48:19;12.30;;;6.53;;
53961;SDS011;39868;53.398;6.564;2023-01-24T12:01:53;14.23;;;5.90;;
53961;SDS011;39868;53.398;6.564;2023-01-24T12:07:27;11.30;;;5.57;;
53961;SDS011;39868;53.398;6.564;2023-01-24T12:10:15;10.63;;;5.33;;
53961;SDS011;39868;53.398;6.564;2023-01-24T12:15:38;14.77;;;6.33;;
53961;SDS011;39868;53.398;6.564;2023-01-24T12:20:58;16.20;;;5.87;;
53961;SDS011;39868;53.398;6.564;2023-01-24T12:23:54;13.00;;;6.43;;
53961;SDS011;39868;53.398;6.564;2023-01-24T12:26:25;15.87;;;6.00;;
53961;SDS011;39868;53.398;6.564;2023-01-24T12:37:12;16.63;;;7.10;;
53961;SDS011;39868;53.398;6.564;2023-01-24T12:39:46;15.13;;;7.43;;
53961;SDS011;39868;53.398;6.564;2023-01-24T12:45:22;13.33;;;7.07;;
53961;SDS011;39868;53.398;6.564;2023-01-24T12:56:13;14.83;;;7.27;;
53961;SDS011;39868;53.398;6.564;2023-01-24T12:58:47;16.67;;;7.37;;
53961;SDS011;39868;53.398;6.564;2023-01-24T13:07:08;14.15;;;6.85;;
53961;SDS011;39868;53.398;6.564;2023-01-24T13:12:27;17.87;;;7.00;;
53961;SDS011;39868;53.398;6.564;2023-01-24T13:14:57;13.87;;;6.80;;
53961;SDS011;39868;53.398;6.564;2023-01-24T13:21:00;16.40;;;7.73;;
53961;SDS011;39868;53.398;6.564;2023-01-24T13:25:57;19.03;;;7.57;;
53961;SDS011;39868;53.398;6.564;2023-01-24T13:28:42;17.13;;;8.00;;
53961;SDS011;39868;53.398;6.564;2023-01-24T13:34:30;17.53;;;7.73;;
53961;SDS011;39868;53.398;6.564;2023-01-24T13:37:25;16.37;;;7.33;;
53961;SDS011;39868;53.398;6.564;2023-01-24T13:42:38;15.23;;;6.30;;
53961;SDS011;39868;53.398;6.564;2023-01-24T13:45:40;20.93;;;7.97;;
53961;SDS011;39868;53.398;6.564;2023-01-24T13:51:27;17.33;;;7.50;;
53961;SDS011;39868;53.398;6.564;2023-01-24T13:59:40;19.73;;;7.80;;
53961;SDS011;39868;53.398;6.564;2023-01-24T14:07:55;18.43;;;7.43;;
53961;SDS011;39868;53.398;6.564;2023-01-24T14:10:39;16.93;;;7.60;;
53961;SDS011;39868;53.398;6.564;2023-01-24T14:27:15;18.53;;;6.93;;
53961;SDS011;39868;53.398;6.564;2023-01-24T14:29:52;13.23;;;6.10;;
53961;SDS011;39868;53.398;6.564;2023-01-24T14:32:25;17.60;;;7.37;;
53961;SDS011;39868;53.398;6.564;2023-01-24T14:40:25;14.80;;;6.13;;
53961;SDS011;39868;53.398;6.564;2023-01-24T14:42:59;15.00;;;6.85;;
53961;SDS011;39868;53.398;6.564;2023-01-24T14:45:32;18.63;;;7.03;;
53961;SDS011;39868;53.398;6.564;2023-01-24T14:48:01;13.30;;;6.00;;
53961;SDS011;39868;53.398;6.564;2023-01-24T14:50:36;13.23;;;6.23;;
53961;SDS011;39868;53.398;6.564;2023-01-24T14:55:56;17.27;;;6.73;;
53961;SDS011;39868;53.398;6.564;2023-01-24T14:58:35;16.63;;;6.90;;
53961;SDS011;39868;53.398;6.564;2023-01-24T15:01:03;15.30;;;6.93;;
53961;SDS011;39868;53.398;6.564;2023-01-24T15:03:46;14.97;;;6.70;;
53961;SDS011;39868;53.398;6.564;2023-01-24T15:06:18;13.83;;;7.13;;
53961;SDS011;39868;53.398;6.564;2023-01-24T15:08:45;12.53;;;6.37;;
53961;SDS011;39868;53.398;6.564;2023-01-24T15:11:25;16.87;;;6.80;;
53961;SDS011;39868;53.398;6.564;2023-01-24T15:13:56;13.27;;;6.33;;
53961;SDS011;39868;53.398;6.564;2023-01-24T15:16:35;16.63;;;7.53;;
53961;SDS011;39868;53.398;6.564;2023-01-24T15:19:26;20.97;;;7.50;;
53961;SDS011;39868;53.398;6.564;2023-01-24T15:21:58;14.63;;;6.77;;
53961;SDS011;39868;53.398;6.564;2023-01-24T15:24:26;14.27;;;6.73;;
53961;SDS011;39868;53.398;6.564;2023-01-24T15:26:56;14.83;;;6.27;;
53961;SDS011;39868;53.398;6.564;2023-01-24T15:35:16;13.33;;;6.07;;
53961;SDS011;39868;53.398;6.564;2023-01-24T15:38:43;16.83;;;6.00;;
53961;SDS011;39868;53.398;6.564;2023-01-24T15:40:57;15.07;;;6.43;;
53961;SDS011;39868;53.398;6.564;2023-01-24T15:43:37;16.47;;;5.77;;
53961;SDS011;39868;53.398;6.564;2023-01-24T15:49:04;13.80;;;5.70;;
53961;SDS011;39868;53.398;6.564;2023-01-24T15:54:42;12.23;;;4.87;;
53961;SDS011;39868;53.398;6.564;2023-01-24T15:57:17;17.00;;;6.03;;
53961;SDS011;39868;53.398;6.564;2023-01-24T15:59:51;14.83;;;6.37;;
53961;SDS011;39868;53.398;6.564;2023-01-24T16:02:39;11.67;;;5.00;;
53961;SDS011;39868;53.398;6.564;2023-01-24T16:05:14;15.07;;;6.17;;
53961;SDS011;39868;53.398;6.564;2023-01-24T16:07:44;16.00;;;6.50;;
53961;SDS011;39868;53.398;6.564;2023-01-24T16:10:12;11.73;;;5.17;;
53961;SDS011;39868;53.398;6.564;2023-01-24T16:12:41;12.90;;;5.83;;
53961;SDS011;39868;53.398;6.564;2023-01-24T16:15:16;13.87;;;5.73;;
53961;SDS011;39868;53.398;6.564;2023-01-24T16:17:46;15.07;;;5.90;;
53961;SDS011;39868;53.398;6.564;2023-01-24T16:20:15;16.40;;;6.30;;
53961;SDS011;39868;53.398;6.564;2023-01-24T16:22:50;16.30;;;6.50;;
53961;SDS011;39868;53.398;6.564;2023-01-24T16:25:17;15.57;;;6.27;;
53961;SDS011;39868;53.398;6.564;2023-01-24T16:27:46;14.10;;;5.37;;
53961;SDS011;39868;53.398;6.564;2023-01-24T16:30:15;13.27;;;6.27;;
53961;SDS011;39868;53.398;6.564;2023-01-24T16:32:48;12.83;;;5.30;;
53961;SDS011;39868;53.398;6.564;2023-01-24T16:35:17;11.20;;;5.87;;
53961;SDS011;39868;53.398;6.564;2023-01-24T16:37:45;16.67;;;6.40;;
53961;SDS011;39868;53.398;6.564;2023-01-24T16:40:13;13.43;;;5.77;;
53961;SDS011;39868;53.398;6.564;2023-01-24T16:42:44;12.73;;;5.23;;
53961;SDS011;39868;53.398;6.564;2023-01-24T16:45:16;14.17;;;5.50;;
53961;SDS011;39868;53.398;6.564;2023-01-24T16:47:45;14.25;;;6.28;;
53961;SDS011;39868;53.398;6.564;2023-01-24T16:50:13;14.47;;;5.80;;
53961;SDS011;39868;53.398;6.564;2023-01-24T16:52:43;13.97;;;5.97;;
53961;SDS011;39868;53.398;6.564;2023-01-24T16:55:10;11.90;;;5.17;;
53961;SDS011;39868;53.398;6.564;2023-01-24T16:57:38;14.77;;;6.20;;
53961;SDS011;39868;53.398;6.564;2023-01-24T17:00:08;13.27;;;5.70;;
53961;SDS011;39868;53.398;6.564;2023-01-24T17:02:40;11.47;;;4.73;;
53961;SDS011;39868;53.398;6.564;2023-01-24T17:05:09;15.87;;;5.40;;
53961;SDS011;39868;53.398;6.564;2023-01-24T17:07:37;14.00;;;5.93;;
53961;SDS011;39868;53.398;6.564;2023-01-24T17:10:10;11.88;;;5.28;;
53961;SDS011;39868;53.398;6.564;2023-01-24T17:12:38;13.27;;;6.00;;
53961;SDS011;39868;53.398;6.564;2023-01-24T17:15:05;10.83;;;4.93;;
53961;SDS011;39868;53.398;6.564;2023-01-24T17:17:34;9.93;;;4.90;;
53961;SDS011;39868;53.398;6.564;2023-01-24T17:20:02;12.30;;;5.43;;
53961;SDS011;39868;53.398;6.564;2023-01-24T17:22:35;14.60;;;5.57;;
53961;SDS011;39868;53.398;6.564;2023-01-24T17:25:04;13.60;;;5.80;;
53961;SDS011;39868;53.398;6.564;2023-01-24T17:27:32;9.97;;;4.80;;
53961;SDS011;39868;53.398;6.564;2023-01-24T17:30:03;12.73;;;5.80;;
53961;SDS011;39868;53.398;6.564;2023-01-24T17:32:32;12.80;;;5.13;;
53961;SDS011;39868;53.398;6.564;2023-01-24T17:35:00;11.30;;;5.03;;
53961;SDS011;39868;53.398;6.564;2023-01-24T17:37:27;14.17;;;6.47;;
53961;SDS011;39868;53.398;6.564;2023-01-24T17:39:55;11.67;;;5.70;;
53961;SDS011;39868;53.398;6.564;2023-01-24T17:42:22;11.50;;;5.17;;
53961;SDS011;39868;53.398;6.564;2023-01-24T17:44:50;10.90;;;4.90;;
53961;SDS011;39868;53.398;6.564;2023-01-24T17:47:18;11.60;;;4.87;;
53961;SDS011;39868;53.398;6.564;2023-01-24T17:49:46;15.60;;;5.03;;
53961;SDS011;39868;53.398;6.564;2023-01-24T17:52:13;10.80;;;4.93;;